Atlanta, Georgia
Traffic Map
Current Weather Conditions
Atlanta, Georgia
Overcast
Overcast
73°
Feels Like: 73°
Wind Chill: 73° Ceiling: 20000
Heat Index: 73° Visibility: 10mi
Dew Point: 54° Wind: 0mph
Humidity: 51% Direction: ° ()
Pressure: 29.99in Gusts: 0mph
Raw Report DataKATL 300452Z 00000KT 10SM FEW070 BKN200 OVC250 23/12 A2999 RMK AO2 SLP143 T02280122 403110172
Traffic Incident Summary
Active as of:
Severity:
Category:
InformationThere was an issue retrieving the traffic information for this location. Please try a different location or try again shortly.
Advertisements
Track Severe Weather on mobile